Terminal Aerodrome Forecast
Issued by NWS

Home | Current Version | Previous Version | Text Only | Print | Product List | Glossary On
Versions: 1 2 3 4 5 6 7 8 9 10 11 12 13 14 15 16
958
FTUS45 KMSO 101608 AAB
TAFSMN
TAF AMD
KSMN 101608Z 1016/1112 00000KT 1SM BR BKN003
      TEMPO 1016/1018 1/4SM FZFG OVC003
     FM101900 00000KT 6SM BR SCT004
      AMD LTD TO CLD VIS AND WIND=

USA.gov is the U.S. government's official web portal to all federal, state and local government web resources and services.